createdAt,value
2019-05-11T00:01:12.951Z,49.23
2019-05-11T00:03:39.483Z,46.93
2019-05-11T00:06:09.047Z,49.13
2019-05-11T00:08:35.648Z,48.43
2019-05-11T00:11:02.395Z,52.77
2019-05-11T00:13:28.927Z,54.57
2019-05-11T00:15:55.713Z,50.87
2019-05-11T00:18:22.224Z,51.93
2019-05-11T00:20:48.866Z,46.73
2019-05-11T00:23:15.536Z,49.07
2019-05-11T00:25:42.184Z,47.43
2019-05-11T00:28:08.771Z,46.60
2019-05-11T00:30:56.972Z,69.37
2019-05-11T00:33:24.131Z,62.33
2019-05-11T00:35:51.530Z,62.50
2019-05-11T00:38:18.242Z,62.43
2019-05-11T00:40:45.055Z,69.67
2019-05-11T00:43:12.133Z,64.37
2019-05-11T00:45:38.951Z,61.33
2019-05-11T00:48:08.751Z,63.40
2019-05-11T00:50:39.420Z,62.63
2019-05-11T00:53:04.645Z,61.43
2019-05-11T00:55:31.680Z,58.37
2019-05-11T00:58:01.889Z,64.03
2019-05-11T01:00:28.717Z,59.10
2019-05-11T01:02:55.603Z,62.80
2019-05-11T01:05:22.288Z,62.33
2019-05-11T01:07:49.050Z,64.33
2019-05-11T01:10:23.777Z,62.20
2019-05-11T01:12:44.162Z,58.97
2019-05-11T01:15:10.922Z,63.03
2019-05-11T01:17:37.430Z,58.93
2019-05-11T01:20:07.388Z,58.27
2019-05-11T01:22:34.003Z,50.57
2019-05-11T01:25:00.647Z,48.17
2019-05-11T01:27:27.327Z,53.67
2019-05-11T01:29:53.770Z,47.80
2019-05-11T01:32:20.664Z,47.97
2019-05-11T01:34:47.444Z,48.97
2019-05-11T01:37:14.207Z,47.43
2019-05-11T01:39:45.368Z,58.70
2019-05-11T01:42:13.366Z,61.50
2019-05-11T01:44:40.391Z,59.10
2019-05-11T01:47:07.354Z,58.63
2019-05-11T01:49:38.270Z,72.00
2019-05-11T01:52:16.753Z,90.83
2019-05-11T01:54:43.907Z,82.07
2019-05-11T01:57:13.344Z,97.87
2019-05-11T01:59:40.147Z,74.47
2019-05-11T02:02:10.208Z,77.07
2019-05-11T02:04:37.153Z,83.13
2019-05-11T02:07:06.805Z,90.80
2019-05-11T02:09:36.975Z,83.50
2019-05-11T02:12:03.644Z,70.23
2019-05-11T02:14:30.882Z,72.90
2019-05-11T02:17:01.090Z,78.10
2019-05-11T02:19:28.140Z,80.43
2019-05-11T02:21:55.490Z,80.60
2019-05-11T02:24:22.636Z,77.90
2019-05-11T02:26:49.716Z,71.27
2019-05-11T02:29:18.406Z,80.03
2019-05-11T02:31:45.215Z,79.90
2019-05-11T02:34:12.440Z,79.10
2019-05-11T02:36:39.945Z,77.80
2019-05-11T02:39:07.458Z,77.70
2019-05-11T02:41:37.212Z,69.30
2019-05-11T02:44:04.476Z,67.37
2019-05-11T02:46:31.333Z,67.33
2019-05-11T02:48:58.040Z,62.97
2019-05-11T02:51:26.122Z,60.67
2019-05-11T02:53:53.900Z,54.37
2019-05-11T02:56:21.212Z,48.00
2019-05-11T02:58:47.925Z,49.40
2019-05-11T03:01:14.999Z,49.40
2019-05-11T03:03:41.801Z,50.57
2019-05-11T03:06:08.513Z,45.37
2019-05-11T03:08:35.184Z,45.17
2019-05-11T03:11:02.053Z,46.80
2019-05-11T03:13:28.662Z,29.70
2019-05-11T03:15:55.456Z,32.53
2019-05-11T03:18:22.461Z,30.57
2019-05-11T03:20:49.380Z,31.30
2019-05-11T03:23:16.061Z,30.47
2019-05-11T03:25:42.950Z,31.07
2019-05-11T03:28:09.620Z,29.03
2019-05-11T03:30:36.276Z,29.00
2019-05-11T03:33:03.379Z,31.70
2019-05-11T03:35:30.445Z,27.00
2019-05-11T03:37:57.126Z,27.97
2019-05-11T03:40:24.213Z,28.43
2019-05-11T03:42:51.047Z,27.77
2019-05-11T03:45:17.851Z,30.87
2019-05-11T03:47:44.577Z,28.83
2019-05-11T03:50:11.412Z,26.97
2019-05-11T03:52:38.144Z,25.90
2019-05-11T03:55:05.512Z,30.23
2019-05-11T03:57:32.303Z,29.87
2019-05-11T03:59:59.279Z,30.50
2019-05-11T04:02:26.049Z,29.17
2019-05-11T04:04:53.032Z,30.27
2019-05-11T04:07:20.020Z,28.57
2019-05-11T04:09:46.923Z,29.37
2019-05-11T04:12:32.940Z,28.57
2019-05-11T04:14:42.066Z,32.27
2019-05-11T04:17:08.815Z,28.70
2019-05-11T04:19:35.648Z,30.17
2019-05-11T04:22:02.454Z,27.77
2019-05-11T04:24:32.151Z,29.57
2019-05-11T04:26:58.934Z,30.20
2019-05-11T04:29:28.505Z,29.53
2019-05-11T04:31:55.216Z,28.90
2019-05-11T04:34:21.816Z,31.37
2019-05-11T04:36:49.115Z,24.43
2019-05-11T04:39:16.222Z,31.03
2019-05-11T04:41:43.138Z,30.40
2019-05-11T04:44:09.845Z,29.37
2019-05-11T04:46:36.521Z,27.07
2019-05-11T04:49:03.687Z,26.13
2019-05-11T04:51:30.746Z,27.10
2019-05-11T04:53:57.185Z,27.40
2019-05-11T04:56:24.143Z,25.77
2019-05-11T04:58:50.805Z,27.57
2019-05-11T05:01:17.498Z,26.17
2019-05-11T05:03:47.541Z,25.47
2019-05-11T05:06:22.041Z,25.40
2019-05-11T05:08:41.161Z,22.73
2019-05-11T05:11:08.945Z,21.93
2019-05-11T05:13:35.634Z,24.20
2019-05-11T05:16:02.562Z,22.20
2019-05-11T05:18:32.237Z,24.97
2019-05-11T05:20:59.597Z,23.70
2019-05-11T05:23:26.437Z,21.00
2019-05-11T05:25:53.862Z,25.43
2019-05-11T05:28:20.613Z,19.00
2019-05-11T05:30:50.354Z,18.60
2019-05-11T05:33:17.644Z,19.43
2019-05-11T05:35:44.751Z,19.17
2019-05-11T05:38:11.534Z,24.30
2019-05-11T05:40:38.713Z,18.80
2019-05-11T05:43:05.365Z,20.70
2019-05-11T05:45:31.961Z,19.20
2019-05-11T05:47:58.604Z,18.67
2019-05-11T05:50:30.084Z,18.70
2019-05-11T05:52:57.105Z,19.33
2019-05-11T05:55:23.788Z,19.43
2019-05-11T05:57:50.635Z,21.73
2019-05-11T06:00:17.725Z,19.13
2019-05-11T06:02:44.456Z,19.53
2019-05-11T06:05:11.246Z,23.37
2019-05-11T06:07:37.838Z,17.43
2019-05-11T06:10:06.568Z,16.30
2019-05-11T06:12:33.222Z,18.73
2019-05-11T06:14:59.946Z,21.73
2019-05-11T06:17:26.848Z,18.77
2019-05-11T06:19:55.509Z,19.90
2019-05-11T06:22:22.189Z,19.83
2019-05-11T06:24:50.087Z,16.97
2019-05-11T06:27:16.719Z,17.67
2019-05-11T06:29:43.512Z,17.00
2019-05-11T06:32:10.203Z,19.23
2019-05-11T06:34:36.670Z,16.00
2019-05-11T06:37:03.256Z,16.47
2019-05-11T06:39:30.040Z,16.50
2019-05-11T06:41:56.782Z,17.63
2019-05-11T06:44:23.904Z,15.00
2019-05-11T06:46:50.671Z,15.97
2019-05-11T06:49:17.511Z,16.47
2019-05-11T06:51:44.296Z,15.30
2019-05-11T06:54:10.919Z,16.87
2019-05-11T06:56:37.723Z,18.67
2019-05-11T06:59:04.542Z,13.93
2019-05-11T07:01:37.287Z,16.83
2019-05-11T07:04:03.981Z,18.07
2019-05-11T07:06:30.922Z,15.60
2019-05-11T07:08:58.226Z,20.70
2019-05-11T07:11:24.929Z,18.80
2019-05-11T07:13:53.958Z,17.90
2019-05-11T07:16:20.768Z,21.43
2019-05-11T07:18:47.540Z,21.30
2019-05-11T07:21:14.208Z,17.27
2019-05-11T07:23:41.534Z,18.30
2019-05-11T07:26:08.066Z,18.90
2019-05-11T07:28:34.940Z,15.10
2019-05-11T07:31:04.630Z,15.77
2019-05-11T07:33:31.249Z,16.83
2019-05-11T07:35:58.383Z,18.27
2019-05-11T07:38:27.770Z,17.83
2019-05-11T07:40:54.339Z,17.77
2019-05-11T07:43:21.019Z,18.03
2019-05-11T07:45:48.097Z,15.23
2019-05-11T07:48:15.060Z,11.87
2019-05-11T07:50:42.604Z,14.53
2019-05-11T07:53:09.257Z,11.63
2019-05-11T07:55:38.656Z,10.80
2019-05-11T07:58:08.006Z,12.77
2019-05-11T08:00:37.427Z,10.83
2019-05-11T08:03:03.830Z,11.13
2019-05-11T08:05:30.610Z,11.93
2019-05-11T08:08:01.938Z,13.30
2019-05-11T08:10:28.796Z,10.87
2019-05-11T08:12:55.755Z,9.90
2019-05-11T08:15:22.911Z,10.53
2019-05-11T08:17:49.550Z,11.47
2019-05-11T08:20:18.498Z,16.53
2019-05-11T08:22:48.335Z,10.77
2019-05-11T08:25:18.052Z,12.43
2019-05-11T08:27:44.226Z,11.97
2019-05-11T08:30:12.189Z,16.00
2019-05-11T08:32:41.592Z,10.67
2019-05-11T08:35:09.241Z,11.50
2019-05-11T08:37:35.788Z,15.93
2019-05-11T08:40:07.904Z,12.63
2019-05-11T08:42:34.448Z,17.47
2019-05-11T08:45:15.824Z,16.13
2019-05-11T08:47:29.676Z,15.60
2019-05-11T08:49:58.759Z,17.73
2019-05-11T08:52:25.302Z,17.07
2019-05-11T08:54:51.942Z,17.17
2019-05-11T08:57:21.089Z,18.13
2019-05-11T08:59:48.384Z,15.97
2019-05-11T09:02:15.799Z,15.47
2019-05-11T09:04:42.560Z,24.67
2019-05-11T09:07:09.194Z,17.17
2019-05-11T09:09:38.016Z,20.60
2019-05-11T09:12:04.665Z,18.70
2019-05-11T09:14:31.299Z,22.67
2019-05-11T09:16:58.209Z,14.20
2019-05-11T09:19:28.223Z,14.57
2019-05-11T09:21:54.619Z,15.97
2019-05-11T09:24:24.295Z,15.60
2019-05-11T09:26:50.998Z,14.47
2019-05-11T09:29:18.027Z,14.10
2019-05-11T09:31:45.145Z,18.33
2019-05-11T09:34:11.755Z,14.63
2019-05-11T09:36:39.138Z,13.33
2019-05-11T09:39:08.496Z,15.70
2019-05-11T09:41:38.115Z,12.63
2019-05-11T09:44:04.218Z,11.47
2019-05-11T09:46:30.788Z,13.73
2019-05-11T09:48:59.070Z,12.83
2019-05-11T09:51:25.912Z,12.93
2019-05-11T09:53:52.533Z,13.23
2019-05-11T09:56:19.266Z,12.20
2019-05-11T09:58:47.939Z,17.63
2019-05-11T10:01:14.344Z,15.50
2019-05-11T10:03:40.907Z,16.03
2019-05-11T10:06:08.367Z,19.43
2019-05-11T10:08:37.916Z,14.37
2019-05-11T10:11:04.041Z,14.70
2019-05-11T10:13:30.673Z,14.43
2019-05-11T10:16:06.230Z,13.90
2019-05-11T10:18:27.961Z,16.87
2019-05-11T10:20:54.705Z,15.10
2019-05-11T10:23:21.186Z,14.83
2019-05-11T10:25:48.128Z,13.90
2019-05-11T10:28:14.847Z,12.63
2019-05-11T10:30:42.282Z,13.87
2019-05-11T10:33:08.716Z,14.80
2019-05-11T10:35:37.794Z,12.97
2019-05-11T10:38:04.195Z,13.73
2019-05-11T10:40:30.815Z,15.23
2019-05-11T10:42:58.975Z,11.67
2019-05-11T10:45:25.773Z,13.23
2019-05-11T10:47:55.762Z,14.07
2019-05-11T10:50:20.735Z,10.10
2019-05-11T10:52:48.409Z,10.77
2019-05-11T10:55:15.357Z,10.93
2019-05-11T10:57:41.793Z,10.67
2019-05-11T11:00:09.577Z,10.47
2019-05-11T11:02:38.244Z,11.13
2019-05-11T11:05:08.116Z,10.63
2019-05-11T11:07:35.192Z,10.10
2019-05-11T11:10:01.804Z,9.10
2019-05-11T11:12:28.576Z,9.33
2019-05-11T11:14:55.169Z,11.50
2019-05-11T11:17:21.681Z,11.47
2019-05-11T11:19:48.772Z,10.83
2019-05-11T11:22:33.274Z,9.70
2019-05-11T11:24:43.934Z,7.57
2019-05-11T11:27:10.949Z,10.63
2019-05-11T11:29:38.786Z,7.67
2019-05-11T11:32:07.926Z,7.97
2019-05-11T11:34:34.035Z,7.05
2019-05-11T11:37:00.665Z,8.60
2019-05-11T11:39:28.270Z,10.68
2019-05-11T11:41:55.260Z,8.73
2019-05-11T11:44:22.196Z,8.93
2019-05-11T11:46:54.981Z,10.83
2019-05-11T11:49:18.741Z,8.97
2019-05-11T11:51:45.533Z,10.87
2019-05-11T11:54:12.055Z,9.57
2019-05-11T11:56:38.663Z,9.65
2019-05-11T11:59:05.283Z,6.92
2019-05-11T12:01:31.939Z,8.03
2019-05-11T12:03:58.518Z,6.97
2019-05-11T12:06:25.139Z,8.05
2019-05-11T12:08:51.554Z,6.75
2019-05-11T12:11:18.954Z,7.12
2019-05-11T12:13:47.582Z,6.62
2019-05-11T12:16:14.179Z,6.90
2019-05-11T12:18:40.750Z,6.62
2019-05-11T12:21:08.009Z,9.10
2019-05-11T12:23:34.930Z,9.18
2019-05-11T12:26:01.486Z,8.85
2019-05-11T12:28:28.052Z,6.50
2019-05-11T12:30:55.109Z,7.15
2019-05-11T12:33:21.772Z,9.33
2019-05-11T12:35:48.767Z,6.95
2019-05-11T12:38:15.299Z,8.03
2019-05-11T12:40:42.278Z,7.42
2019-05-11T12:43:08.915Z,8.48
2019-05-11T12:45:37.504Z,7.22
2019-05-11T12:48:03.900Z,5.90
2019-05-11T12:50:30.560Z,6.92
2019-05-11T12:52:58.770Z,6.78
2019-05-11T12:55:28.879Z,7.15
2019-05-11T12:57:57.818Z,5.85
2019-05-11T13:00:23.923Z,8.55
2019-05-11T13:02:50.392Z,6.75
2019-05-11T13:05:18.003Z,7.30
2019-05-11T13:07:45.054Z,6.72
2019-05-11T13:10:14.172Z,8.80
2019-05-11T13:12:40.779Z,7.35
2019-05-11T13:15:08.325Z,5.92
2019-05-11T13:17:38.396Z,6.25
2019-05-11T13:20:08.408Z,5.87
2019-05-11T13:22:34.853Z,7.05
2019-05-11T13:25:02.257Z,8.63
2019-05-11T13:27:28.699Z,6.20
2019-05-11T13:29:55.598Z,6.67
2019-05-11T13:32:22.277Z,7.37
2019-05-11T13:34:48.786Z,9.23
2019-05-11T13:37:15.428Z,5.70
2019-05-11T13:39:43.570Z,6.72
2019-05-11T13:42:10.428Z,10.13
2019-05-11T13:44:38.497Z,5.72
2019-05-11T13:47:05.995Z,6.92
2019-05-11T13:49:32.799Z,7.53
2019-05-11T13:51:59.509Z,5.62
2019-05-11T13:54:26.197Z,7.17
2019-05-11T13:56:52.666Z,6.35
2019-05-11T13:59:19.297Z,5.20
2019-05-11T14:01:47.739Z,4.65
2019-05-11T14:04:14.164Z,5.62
2019-05-11T14:06:40.732Z,5.25
2019-05-11T14:09:08.571Z,7.22
2019-05-11T14:11:35.093Z,9.60
2019-05-11T14:14:01.753Z,4.97
2019-05-11T14:16:28.266Z,3.98
2019-05-11T14:18:55.203Z,6.45
2019-05-11T14:21:22.264Z,5.08
2019-05-11T14:23:48.773Z,6.35
2019-05-11T14:26:15.386Z,5.42
2019-05-11T14:28:41.939Z,10.08
2019-05-11T14:31:08.584Z,6.65
2019-05-11T14:33:34.997Z,5.85
2019-05-11T14:36:01.699Z,7.08
2019-05-11T14:38:28.897Z,7.92
2019-05-11T14:40:55.541Z,7.60
2019-05-11T14:43:22.109Z,7.37
2019-05-11T14:45:48.753Z,7.35
2019-05-11T14:48:24.162Z,6.75
2019-05-11T14:50:44.800Z,6.58
2019-05-11T14:53:11.510Z,7.17
2019-05-11T14:55:38.334Z,5.30
2019-05-11T14:58:05.018Z,6.97
2019-05-11T15:00:31.536Z,7.50
2019-05-11T15:02:58.530Z,5.70
2019-05-11T15:05:25.230Z,6.50
2019-05-11T15:07:52.815Z,6.65
2019-05-11T15:10:21.135Z,7.00
2019-05-11T15:12:48.860Z,4.60
2019-05-11T15:15:18.642Z,5.75
2019-05-11T15:17:45.613Z,5.12
2019-05-11T15:20:17.538Z,9.73
2019-05-11T15:22:42.264Z,7.90
2019-05-11T15:25:14.774Z,6.78
2019-05-11T15:27:41.439Z,7.33
2019-05-11T15:30:09.584Z,5.43
2019-05-11T15:32:37.588Z,5.67
2019-05-11T15:35:08.036Z,8.75
2019-05-11T15:37:35.188Z,7.20
2019-05-11T15:40:15.346Z,6.95
2019-05-11T15:42:43.328Z,9.10
2019-05-11T15:45:11.750Z,5.03
2019-05-11T15:47:38.517Z,6.13
2019-05-11T15:50:08.961Z,6.20
2019-05-11T15:52:39.868Z,6.47
2019-05-11T15:55:07.931Z,7.40
2019-05-11T15:57:34.161Z,8.47
2019-05-11T16:00:00.790Z,5.97
2019-05-11T16:02:28.921Z,4.60
2019-05-11T16:04:58.203Z,5.70
2019-05-11T16:07:24.432Z,5.50
2019-05-11T16:09:50.849Z,5.47
2019-05-11T16:12:18.190Z,6.27
2019-05-11T16:14:44.685Z,5.50
2019-05-11T16:17:11.383Z,7.47
2019-05-11T16:19:40.924Z,6.40
2019-05-11T16:22:09.834Z,7.80
2019-05-11T16:24:39.770Z,52.80
2019-05-11T16:27:03.224Z,6.10
2019-05-11T16:29:29.714Z,6.17
2019-05-11T16:31:57.840Z,5.53
2019-05-11T16:34:24.769Z,5.90
2019-05-11T16:36:51.331Z,8.03
2019-05-11T16:39:18.683Z,5.93
2019-05-11T16:41:45.661Z,4.87
2019-05-11T16:44:12.415Z,4.23
2019-05-11T16:46:39.074Z,5.60
2019-05-11T16:49:05.858Z,4.60
2019-05-11T16:51:32.797Z,5.93
2019-05-11T16:53:59.565Z,5.23
2019-05-11T16:56:26.132Z,5.77
2019-05-11T16:58:54.710Z,6.53
2019-05-11T17:01:21.109Z,7.60
2019-05-11T17:03:48.282Z,5.87
2019-05-11T17:06:15.226Z,5.27
2019-05-11T17:08:41.853Z,6.57
2019-05-11T17:11:08.451Z,5.20
2019-05-11T17:13:34.941Z,5.80
2019-05-11T17:16:01.579Z,7.17
2019-05-11T17:18:28.732Z,6.23
2019-05-11T17:20:55.271Z,5.63
2019-05-11T17:23:21.846Z,7.63
2019-05-11T17:25:48.508Z,7.63
2019-05-11T17:28:15.199Z,8.37
2019-05-11T17:30:41.838Z,7.13
2019-05-11T17:33:08.835Z,8.63
2019-05-11T17:35:35.523Z,8.77
2019-05-11T17:38:02.202Z,6.80
2019-05-11T17:40:28.717Z,7.43
2019-05-11T17:42:55.240Z,8.87
2019-05-11T17:45:22.161Z,6.27
2019-05-11T17:47:48.789Z,9.50
2019-05-11T17:50:15.471Z,8.40
2019-05-11T17:52:41.999Z,6.33
2019-05-11T17:55:08.608Z,12.83
2019-05-11T17:57:35.248Z,8.50
2019-05-11T18:00:04.690Z,7.27
2019-05-11T18:02:31.160Z,7.07
2019-05-11T18:04:58.439Z,5.50
2019-05-11T18:07:30.274Z,6.63
2019-05-11T18:09:54.827Z,6.47
2019-05-11T18:12:21.803Z,7.47
2019-05-11T18:14:48.363Z,8.07
2019-05-11T18:17:14.918Z,5.30
2019-05-11T18:19:41.653Z,7.87
2019-05-11T18:22:08.384Z,13.73
2019-05-11T18:24:35.080Z,14.30
2019-05-11T18:27:01.731Z,14.07
2019-05-11T18:29:28.790Z,10.70
2019-05-11T18:31:57.812Z,12.30
2019-05-11T18:34:24.204Z,7.20
2019-05-11T18:36:50.736Z,13.93
2019-05-11T18:39:18.609Z,7.63
2019-05-11T18:41:45.544Z,6.87
2019-05-11T18:44:13.984Z,5.43
2019-05-11T18:46:40.554Z,245.63
2019-05-11T18:49:07.077Z,15.07
2019-05-11T18:51:33.591Z,10.13
2019-05-11T18:54:00.264Z,7.90
2019-05-11T18:56:28.581Z,9.63
2019-05-11T18:58:58.239Z,14.03
2019-05-11T19:01:24.176Z,8.37
2019-05-11T19:03:50.695Z,10.30
2019-05-11T19:06:18.375Z,6.63
2019-05-11T19:08:47.680Z,10.80
2019-05-11T19:11:13.448Z,8.97
2019-05-11T19:13:40.010Z,8.67
2019-05-11T19:16:08.587Z,8.10
2019-05-11T19:18:35.414Z,10.60
2019-05-11T19:21:02.187Z,12.20
2019-05-11T19:23:28.930Z,10.10
2019-05-11T19:25:57.770Z,9.60
2019-05-11T19:28:23.887Z,8.57
2019-05-11T19:30:50.422Z,8.63
2019-05-11T19:33:18.975Z,9.07
2019-05-11T19:35:45.291Z,7.57
2019-05-11T19:38:11.948Z,7.13
2019-05-11T19:40:38.811Z,7.50
2019-05-11T19:43:07.679Z,42.13
2019-05-11T19:45:33.744Z,15.57
2019-05-11T19:48:00.918Z,12.73
2019-05-11T19:50:27.901Z,8.10
2019-05-11T19:52:54.438Z,7.53
2019-05-11T19:55:21.520Z,11.80
2019-05-11T19:57:48.417Z,11.40
2019-05-11T20:00:18.147Z,11.23
2019-05-11T20:02:43.859Z,12.57
2019-05-11T20:05:10.470Z,13.87
2019-05-11T20:07:37.784Z,15.13
2019-05-11T20:10:07.537Z,19.23
2019-05-11T20:12:34.364Z,21.80
2019-05-11T20:15:00.959Z,21.17
2019-05-11T20:17:28.772Z,20.17
2019-05-11T20:19:58.112Z,23.07
2019-05-11T20:22:24.041Z,19.77
2019-05-11T20:24:50.566Z,23.20
2019-05-11T20:27:18.613Z,22.17
2019-05-11T20:29:47.762Z,22.37
2019-05-11T20:32:14.856Z,24.93
2019-05-11T20:34:42.022Z,21.67
2019-05-11T20:37:08.543Z,20.83
2019-05-11T20:39:37.739Z,21.43
2019-05-11T20:42:03.737Z,21.00
2019-05-11T20:44:30.303Z,23.07
2019-05-11T20:46:58.024Z,25.67
2019-05-11T20:49:24.943Z,22.70
2019-05-11T20:51:51.987Z,23.23
2019-05-11T20:54:18.614Z,22.70
2019-05-11T20:56:47.839Z,21.83
2019-05-11T20:59:14.532Z,20.70
2019-05-11T21:01:41.171Z,25.13
2019-05-11T21:04:08.472Z,24.53
2019-05-11T21:06:35.149Z,17.97
2019-05-11T21:09:01.744Z,17.63
2019-05-11T21:11:28.269Z,20.37
2019-05-11T21:13:55.244Z,18.23
2019-05-11T21:16:21.962Z,24.37
2019-05-11T21:18:48.572Z,21.80
2019-05-11T21:21:15.235Z,18.57
2019-05-11T21:23:41.791Z,19.07
2019-05-11T21:26:09.980Z,16.50
2019-05-11T21:28:38.041Z,18.00
2019-05-11T21:31:07.791Z,15.43
2019-05-11T21:33:33.688Z,17.57
2019-05-11T21:36:00.768Z,15.70
2019-05-11T21:38:31.608Z,21.43
2019-05-11T21:40:57.938Z,19.00
2019-05-11T21:43:24.592Z,17.47
2019-05-11T21:45:50.996Z,13.20
2019-05-11T21:48:17.506Z,18.00
2019-05-11T21:50:44.121Z,15.07
2019-05-11T21:53:10.767Z,14.60
2019-05-11T21:55:37.832Z,14.63
2019-05-11T21:58:04.739Z,16.27
2019-05-11T22:00:32.593Z,16.47
2019-05-11T22:02:59.220Z,15.57
2019-05-11T22:05:25.919Z,12.37
2019-05-11T22:07:52.539Z,13.33
2019-05-11T22:10:19.273Z,16.87
2019-05-11T22:12:45.723Z,16.50
2019-05-11T22:15:13.117Z,12.93
2019-05-11T22:17:40.056Z,11.87
2019-05-11T22:20:09.091Z,13.93
2019-05-11T22:22:35.930Z,14.70
2019-05-11T22:25:04.780Z,12.17
2019-05-11T22:27:31.308Z,12.53
2019-05-11T22:29:58.914Z,12.67
2019-05-11T22:32:28.073Z,12.80
2019-05-11T22:34:54.929Z,13.17
2019-05-11T22:37:21.871Z,13.57
2019-05-11T22:39:49.438Z,12.17
2019-05-11T22:42:18.324Z,13.13
2019-05-11T22:44:45.053Z,16.00
2019-05-11T22:47:11.807Z,12.80
2019-05-11T22:49:38.410Z,15.30
2019-05-11T22:52:05.083Z,13.13
2019-05-11T22:54:31.661Z,16.23
2019-05-11T22:56:58.664Z,14.33
2019-05-11T22:59:28.129Z,14.13
2019-05-11T23:01:55.168Z,14.80
2019-05-11T23:04:21.914Z,13.40
2019-05-11T23:06:48.589Z,16.00
2019-05-11T23:09:15.431Z,16.10
2019-05-11T23:11:42.094Z,15.13
2019-05-11T23:14:09.974Z,17.90
2019-05-11T23:16:37.537Z,16.87
2019-05-11T23:19:09.478Z,17.57
2019-05-11T23:21:35.266Z,15.33
2019-05-11T23:24:02.259Z,15.90
2019-05-11T23:26:29.665Z,16.00
2019-05-11T23:28:57.962Z,18.03
2019-05-11T23:31:27.459Z,15.20
2019-05-11T23:33:54.139Z,15.07
2019-05-11T23:36:20.733Z,17.67
2019-05-11T23:38:47.810Z,20.57
2019-05-11T23:41:24.316Z,11.43
2019-05-11T23:43:43.386Z,18.03
2019-05-11T23:46:10.486Z,15.43
2019-05-11T23:48:38.615Z,15.80
2019-05-11T23:51:05.540Z,16.87
2019-05-11T23:53:32.163Z,12.87
2019-05-11T23:56:02.806Z,15.57
